Time;durP1;ratioP1;P1;durP2;ratioP2;P2;SDS_P1;SDS_P2;PMS_P1;PMS_P2;Temp;Humidity;BMP_temperature;BMP_pressure;BME280_temperature;BME280_humidity;BME280_pressure;Samples;Min_cycle;Max_cycle;Signal;HPM_P1;HPM_P2
2023/09/13 06:14:51;;;;;;;32.58;18.17;;;;;;;17.85;100.00;101317.22;4932120;23;20056;-89
2023/09/13 06:17:36;;;;;;;33.30;18.92;;;;;;;17.86;100.00;101326.84;4927376;29;20039;-94
2023/09/13 06:20:09;;;;;;;41.30;19.15;;;;;;;17.85;100.00;101325.13;5194523;23;20084;-94
2023/09/13 06:25:43;;;;;;;;;;;;;;;;;;;;;
2023/09/13 06:33:42;;;;;;;;;;;;;;;;;;;;;
2023/09/13 06:36:08;;;;;;;35.38;18.58;;;;;;;17.89;100.00;101353.84;4936774;29;20115;-92
2023/09/13 06:38:34;;;;;;;33.40;18.85;;;;;;;17.91;100.00;101351.16;4932459;29;20119;-92
2023/09/13 06:46:23;;;;;;;33.13;18.75;;;;;;;17.93;100.00;101367.75;5354214;23;20067;-96
2023/09/13 06:49:07;;;;;;;;;;;;;;;;;;;;;
2023/09/13 06:51:32;;;;;;;29.10;17.00;;;;;;;17.94;100.00;101369.41;4933376;29;20118;-91
2023/09/13 07:06:54;;;;;;;27.23;15.35;;;;;;;18.08;100.00;101373.22;3146727;23;20411;-92
2023/09/13 07:09:38;;;;;;;;;;;;;;;;;;;;;
2023/09/13 07:18:33;;;;;;;;;;;;;;;;;;;;;
2023/09/13 07:21:57;;;;;;;;;;;;;;;;;;;;;
2023/09/13 07:28:17;;;;;;;25.35;14.63;;;;;;;18.40;100.00;101392.66;4943598;23;20058;-96
2023/09/13 07:30:52;;;;;;;25.03;13.80;;;;;;;18.42;100.00;101389.97;4938810;23;20441;-93
2023/09/13 07:33:17;;;;;;;24.33;13.90;;;;;;;18.45;100.00;101392.44;4942685;23;20111;-93
2023/09/13 07:42:13;;;;;;;23.38;13.75;;;;;;;18.46;100.00;101399.41;4932632;29;20036;-93
2023/09/13 07:47:13;;;;;;;25.55;13.00;;;;;;;18.43;100.00;101400.44;5081019;23;20052;-94
2023/09/13 07:49:38;;;;;;;20.05;10.90;;;;;;;18.37;100.00;101431.50;4930783;29;20032;-96
2023/09/13 07:52:04;;;;;;;11.52;6.93;;;;;;;18.19;100.00;101434.94;4934985;29;20043;-94
2023/09/13 07:54:29;;;;;;;7.65;5.00;;;;;;;18.08;100.00;101445.16;4905339;29;20035;-94
2023/09/13 07:57:17;;;;;;;;;;;;;;;;;;;;;
2023/09/13 08:02:46;;;;;;;4.10;1.70;;;;;;;17.59;100.00;101470.16;5253432;23;20150;-95
2023/09/13 08:09:48;;;;;;;;;;;;;;;;;;;;;
2023/09/13 08:35:10;;;;;;;1.30;0.38;;;;;;;17.11;98.93;101537.16;4811495;29;20146;-95
2023/09/13 08:37:54;;;;;;;;;;;;;;;;;;;;;
2023/09/13 09:13:31;;;;;;;;;;;;;;;;;;;;;
2023/09/13 09:16:48;;;;;;;;;;;;;;;;;;;;;
2023/09/13 09:35:19;;;;;;;1.02;0.50;;;;;;;17.29;94.79;101646.81;3287673;26;20062;-95
2023/09/13 09:42:57;;;;;;;0.65;0.40;;;;;;;17.36;93.26;101657.94;1851880;23;20055;-89
2023/09/13 09:45:23;;;;;;;1.30;0.60;;;;;;;17.38;93.16;101661.38;4946184;28;20025;-90
2023/09/13 09:47:52;;;;;;;1.05;0.63;;;;;;;17.42;93.07;101667.34;4945208;28;20034;-90
2023/09/13 09:50:18;;;;;;;2.35;0.63;;;;;;;17.43;92.49;101667.28;4946109;28;20096;-88
2023/09/13 09:52:50;;;;;;;1.42;0.60;;;;;;;17.46;92.45;101668.94;4938016;28;20122;-90
2023/09/13 09:55:24;;;;;;;1.52;0.60;;;;;;;17.48;92.77;101671.50;4935912;29;20036;-91
2023/09/13 09:57:50;;;;;;;0.90;0.50;;;;;;;17.52;93.44;101673.09;4932999;29;20031;-91
2023/09/13 10:00:16;;;;;;;1.20;0.50;;;;;;;17.59;92.46;101674.56;4933458;29;20024;-91
2023/09/13 10:02:45;;;;;;;1.65;0.55;;;;;;;17.63;91.75;101673.47;4932804;28;20391;-91
2023/09/13 10:05:30;;;;;;;0.95;0.60;;;;;;;17.67;92.56;101682.13;4930527;29;20519;-95
2023/09/13 10:07:55;;;;;;;3.70;0.70;;;;;;;17.67;92.01;101679.50;4940815;29;20127;-92
2023/09/13 10:10:29;;;;;;;1.45;0.77;;;;;;;17.73;91.90;101669.56;4939965;29;20150;-90
2023/09/13 10:13:00;;;;;;;1.23;0.60;;;;;;;17.78;91.73;101690.41;4941878;28;20038;-94
2023/09/13 10:18:54;;;;;;;0.63;0.47;;;;;;;17.78;90.90;101684.28;4923650;29;20550;-92
2023/09/13 10:21:45;;;;;;;1.63;0.70;;;;;;;17.72;91.37;101686.25;4941880;28;20480;-91
2023/09/13 10:24:17;;;;;;;0.87;0.50;;;;;;;17.66;91.83;101681.25;4937335;29;20066;-89
2023/09/13 10:26:52;;;;;;;2.35;0.68;;;;;;;17.67;92.46;101682.13;4942678;29;20105;-91
2023/09/13 10:29:57;;;;;;;1.77;0.68;;;;;;;17.66;91.28;101683.03;4943431;29;20067;-92
2023/09/13 10:32:26;;;;;;;1.30;0.60;;;;;;;17.63;89.18;101691.06;4944187;28;20483;-92
2023/09/13 10:34:58;;;;;;;2.15;0.57;;;;;;;17.65;93.08;101705.84;4943272;29;20019;-90
2023/09/13 10:37:42;;;;;;;0.70;0.50;;;;;;;17.68;92.40;101705.72;4943491;29;20039;-93
2023/09/13 10:40:46;;;;;;;1.55;0.70;;;;;;;17.72;90.79;101717.84;4946689;29;20074;-91
2023/09/13 10:43:13;;;;;;;1.67;0.80;;;;;;;17.74;88.74;101716.00;4924149;29;20070;-94
2023/09/13 10:54:31;;;;;;;;;;;;;;;;;;;;;
2023/09/13 10:56:56;;;;;;;1.85;0.50;;;;;;;18.27;89.07;101724.31;4922899;29;20046;-91
2023/09/13 10:59:28;;;;;;;1.17;0.60;;;;;;;18.35;86.69;101732.72;4931838;29;20028;-93
2023/09/13 11:01:54;;;;;;;1.23;0.60;;;;;;;18.44;85.98;101734.09;4921102;29;20035;-92
2023/09/13 11:04:21;;;;;;;1.10;0.50;;;;;;;18.54;85.26;101739.81;4925368;29;20035;-92
2023/09/13 11:11:20;;;;;;;0.50;0.40;;;;;;;18.69;86.24;101753.22;4807959;29;20071;-96
2023/09/13 11:14:18;;;;;;;1.52;0.60;;;;;;;18.71;86.30;101748.72;4802578;29;20047;-94
2023/09/13 11:16:46;;;;;;;1.17;0.40;;;;;;;18.70;84.33;101758.44;4908721;29;20274;-93
2023/09/13 11:19:31;;;;;;;;;;;;;;;;;;;;;
2023/09/13 11:22:07;;;;;;;1.10;0.57;;;;;;;18.65;82.73;101765.69;4912289;29;20036;-94
2023/09/13 11:24:43;;;;;;;1.52;0.60;;;;;;;18.60;84.03;101768.53;4911018;29;20028;-95
2023/09/13 11:27:42;;;;;;;1.50;0.70;;;;;;;18.52;85.32;101773.28;4910497;29;20454;-94
2023/09/13 11:30:38;;;;;;;;;;;;;;;;;;;;;
2023/09/13 11:33:04;;;;;;;1.25;0.60;;;;;;;18.26;82.73;101782.31;4914207;28;20044;-94
2023/09/13 11:35:51;;;;;;;;;;;;;;;;;;;;;
2023/09/13 11:38:17;;;;;;;1.38;0.50;;;;;;;18.15;82.47;101790.69;4915062;29;20028;-89
2023/09/13 11:40:49;;;;;;;1.45;0.60;;;;;;;18.17;84.15;101797.63;4914153;29;20080;-90
2023/09/13 11:43:26;;;;;;;2.20;0.60;;;;;;;18.19;83.44;101801.00;4922185;29;20055;-94
2023/09/13 11:45:55;;;;;;;2.70;0.70;;;;;;;18.24;81.69;101798.22;4928983;29;20024;-95
2023/09/13 11:48:32;;;;;;;1.83;0.50;;;;;;;18.34;82.44;101803.94;4902234;29;20068;-95
2023/09/13 11:51:11;;;;;;;2.00;0.60;;;;;;;18.42;84.17;101806.25;4924279;29;20047;-96
2023/09/13 11:53:37;;;;;;;1.08;0.50;;;;;;;18.44;80.14;101810.50;4911347;29;20142;-95
2023/09/13 11:56:02;;;;;;;2.17;0.70;;;;;;;18.47;79.54;101820.03;4924907;29;20114;-95
2023/09/13 12:22:52;;;;;;;;;;;;;;;;;;;;;
2023/09/13 12:39:13;;;;;;;2.33;1.08;;;;;;;18.47;78.16;101842.00;5063862;23;20060;-94
2023/09/13 12:42:07;;;;;;;2.78;1.10;;;;;;;18.61;77.22;101851.94;4925193;29;20031;-96
2023/09/13 12:52:01;;;;;;;;;;;;;;;;;;;;;
2023/09/13 12:55:40;;;;;;;1.75;0.93;;;;;;;18.66;80.46;101867.56;4865085;29;20109;-90
2023/09/13 12:59:08;;;;;;;3.17;1.02;;;;;;;18.61;80.34;101869.53;4833250;29;20040;-90
2023/09/13 13:02:04;;;;;;;;;;;;;;;;;;;;;
2023/09/13 13:05:38;;;;;;;;;;;;;;;;;;;;;
2023/09/13 13:11:56;;;;;;;;;;;;;;;;;;;;;
2023/09/13 13:17:34;;;;;;;2.97;0.93;;;;;;;18.89;80.14;101884.13;4862310;29;20036;-92
2023/09/13 13:20:05;;;;;;;1.75;0.98;;;;;;;19.05;81.82;101879.06;4869438;29;20032;-93
2023/09/13 13:22:31;;;;;;;1.83;0.95;;;;;;;19.09;79.16;101880.66;4925706;29;20060;-94
2023/09/13 13:24:56;;;;;;;2.90;1.25;;;;;;;19.10;78.87;101885.84;4909428;29;20087;-94
2023/09/13 13:27:57;;;;;;;;;;;;;;;;;;;;;
2023/09/13 13:31:04;;;;;;;2.65;1.13;;;;;;;19.07;80.30;101888.59;4923805;29;20044;-95
2023/09/13 13:33:32;;;;;;;1.88;0.93;;;;;;;18.96;77.71;101894.34;4924829;29;20047;-91
2023/09/13 13:36:02;;;;;;;3.22;1.33;;;;;;;18.91;78.13;101896.34;4930626;29;20027;-94
2023/09/13 13:38:40;;;;;;;;;;;;;;;;;;;;;
2023/09/13 13:41:22;;;;;;;3.78;0.90;;;;;;;18.91;76.02;101909.53;4922697;29;20050;-94
2023/09/13 13:43:47;;;;;;;2.92;1.00;;;;;;;18.94;79.00;101903.25;4930137;29;20031;-93
2023/09/13 13:46:16;;;;;;;4.43;1.10;;;;;;;19.01;77.32;101907.38;4928083;29;20030;-93
2023/09/13 13:48:45;;;;;;;2.90;1.20;;;;;;;19.11;77.70;101910.44;4926138;29;20492;-91
2023/09/13 13:51:11;;;;;;;1.42;0.90;;;;;;;19.12;79.20;101917.44;4925636;29;20166;-92
2023/09/13 13:53:38;;;;;;;2.85;1.00;;;;;;;19.09;79.78;101914.94;4922585;29;20107;-92
2023/09/13 13:56:07;;;;;;;3.15;1.10;;;;;;;19.06;80.04;101910.63;4922083;29;20147;-93
2023/09/13 13:58:32;;;;;;;4.20;1.23;;;;;;;19.05;76.65;101921.25;4921289;29;20038;-93
2023/09/13 14:01:01;;;;;;;2.95;1.25;;;;;;;19.07;78.68;101928.16;4918947;29;20036;-94
2023/09/13 14:03:26;;;;;;;3.47;1.20;;;;;;;19.06;76.77;101923.81;4919941;29;20035;-94
2023/09/13 14:05:52;;;;;;;3.65;1.50;;;;;;;19.04;78.31;101927.47;4915207;29;20032;-93
2023/09/13 14:08:18;;;;;;;4.68;1.45;;;;;;;19.02;75.66;101922.28;4920328;29;20036;-92
2023/09/13 14:10:45;;;;;;;3.85;1.33;;;;;;;18.99;76.44;101926.81;4919018;29;20050;-91
2023/09/13 14:13:15;;;;;;;3.45;1.50;;;;;;;18.99;76.12;101924.16;4919200;29;20167;-91
2023/09/13 14:15:41;;;;;;;3.15;1.40;;;;;;;19.04;77.50;101927.47;4918393;29;20569;-93
2023/09/13 14:18:07;;;;;;;2.22;1.10;;;;;;;19.08;76.34;101927.25;4904193;29;20318;-93
2023/09/13 14:20:35;;;;;;;1.73;1.10;;;;;;;19.14;77.61;101931.41;4925057;29;20081;-92
2023/09/13 14:23:08;;;;;;;4.03;1.25;;;;;;;19.15;75.45;101933.09;4929770;29;20501;-94
2023/09/13 14:25:33;;;;;;;2.78;1.20;;;;;;;19.17;77.60;101931.25;4921156;29;20378;-91
2023/09/13 14:27:58;;;;;;;3.15;1.17;;;;;;;19.20;76.97;101931.13;4923713;29;20571;-93
2023/09/13 14:30:24;;;;;;;3.08;1.20;;;;;;;19.23;77.52;101938.03;4924121;29;20106;-88
2023/09/13 14:32:49;;;;;;;3.75;0.95;;;;;;;19.25;77.49;101931.78;4923971;29;20468;-91
2023/09/13 14:35:15;;;;;;;2.08;1.10;;;;;;;19.27;77.09;101939.63;4907350;29;20024;-93
2023/09/13 14:37:41;;;;;;;2.85;1.25;;;;;;;19.24;75.89;101937.13;4926133;29;20428;-96
2023/09/13 14:40:18;;;;;;;3.22;1.20;;;;;;;19.14;75.39;101923.47;4906679;29;20055;-95
2023/09/13 14:42:44;;;;;;;4.55;1.30;;;;;;;19.14;76.33;101920.84;4919380;29;20046;-92
2023/09/13 14:45:09;;;;;;;3.08;1.13;;;;;;;19.18;78.00;101921.59;4922839;29;20024;-91
2023/09/13 14:47:35;;;;;;;3.05;1.20;;;;;;;19.23;76.16;101922.22;4921421;29;20070;-92
2023/09/13 14:50:04;;;;;;;3.15;1.10;;;;;;;19.24;74.92;101927.44;4924660;29;20036;-93
2023/09/13 14:52:36;;;;;;;5.45;1.08;;;;;;;19.31;76.50;101924.50;4923246;29;20094;-94
2023/09/13 14:55:07;;;;;;;2.20;1.05;;;;;;;19.39;75.86;101925.03;4928851;29;20044;-95
2023/09/13 14:57:34;;;;;;;2.67;1.20;;;;;;;19.44;75.94;101922.16;4931471;29;20035;-94
2023/09/13 14:59:59;;;;;;;3.78;1.45;;;;;;;19.44;76.04;101922.16;4944870;29;20051;-90
2023/09/13 15:05:00;;;;;;;2.90;1.15;;;;;;;19.41;75.22;101924.00;5149436;23;20060;-92
2023/09/13 15:07:26;;;;;;;2.72;1.20;;;;;;;19.39;76.17;101925.03;4937826;28;20038;-92
2023/09/13 15:09:51;;;;;;;2.25;1.13;;;;;;;19.30;75.62;101926.28;4941516;28;20039;-90
2023/09/13 15:12:22;;;;;;;2.40;1.10;;;;;;;19.24;75.81;101926.56;4941494;28;20043;-94
2023/09/13 15:15:00;;;;;;;2.65;0.80;;;;;;;19.18;76.54;101935.63;4947583;28;20114;-95
2023/09/13 15:17:57;;;;;;;2.33;1.10;;;;;;;19.11;77.11;101926.28;4925662;28;20242;-93
2023/09/13 15:20:34;;;;;;;;;;;;;;;;;;;;;
2023/09/13 15:23:00;;;;;;;2.65;1.00;;;;;;;18.97;75.19;101924.25;4967592;23;20052;-91
2023/09/13 15:25:25;;;;;;;2.35;0.90;;;;;;;18.96;75.28;101920.72;4951634;28;20080;-94
2023/09/13 15:28:24;;;;;;;;;;;;;;;;;;;;;
2023/09/13 15:30:57;;;;;;;1.80;0.75;;;;;;;19.03;73.59;101928.38;4948416;28;20514;-93
2023/09/13 15:33:22;;;;;;;1.88;0.63;;;;;;;19.02;73.22;101931.94;4933098;29;20023;-91
2023/09/13 15:35:50;;;;;;;3.00;0.82;;;;;;;18.95;74.04;101926.09;4932084;29;20068;-93
2023/09/13 15:38:15;;;;;;;1.75;0.88;;;;;;;18.88;74.83;101925.47;4933685;29;20051;-93
2023/09/13 15:40:41;;;;;;;2.08;1.05;;;;;;;18.84;75.44;101925.69;4933242;29;20111;-94
2023/09/13 15:43:06;;;;;;;1.25;0.80;;;;;;;18.85;75.72;101930.03;4935171;29;20691;-93
2023/09/13 15:45:32;;;;;;;2.17;1.00;;;;;;;18.83;73.94;101929.22;4932504;29;20032;-91
2023/09/13 15:47:57;;;;;;;2.08;0.82;;;;;;;18.78;72.15;101929.44;4937788;29;20083;-92
2023/09/13 15:50:22;;;;;;;2.13;0.90;;;;;;;18.81;75.24;101926.66;4938138;29;20046;-91
2023/09/13 15:52:50;;;;;;;1.42;0.80;;;;;;;18.88;74.84;101930.75;4929977;29;20023;-90
2023/09/13 15:55:15;;;;;;;1.67;0.80;;;;;;;18.97;74.81;101934.78;4913669;29;20020;-90
2023/09/13 15:57:41;;;;;;;2.38;1.10;;;;;;;19.03;74.57;101945.09;4927828;29;20494;-90
2023/09/13 16:00:09;;;;;;;2.65;1.10;;;;;;;19.00;73.32;101941.69;4932603;29;20468;-90
2023/09/13 16:02:34;;;;;;;2.63;1.00;;;;;;;18.91;72.96;101941.16;4929601;29;20046;-90
2023/09/13 16:04:59;;;;;;;2.90;1.20;;;;;;;18.81;74.38;101950.38;4930236;29;20028;-90
2023/09/13 16:07:29;;;;;;;1.98;0.82;;;;;;;18.75;73.96;101940.09;4928960;29;20040;-91
2023/09/13 16:09:55;;;;;;;1.55;0.80;;;;;;;18.71;74.63;101935.88;4930608;29;20028;-90
2023/09/13 16:12:20;;;;;;;1.13;0.70;;;;;;;18.66;74.79;101947.47;4930144;29;20383;-89
2023/09/13 16:14:45;;;;;;;1.90;0.90;;;;;;;18.60;75.47;101942.47;4930538;29;20376;-90
2023/09/13 16:17:11;;;;;;;3.42;0.90;;;;;;;18.59;76.00;101940.75;4928228;29;20042;-89
2023/09/13 16:19:36;;;;;;;1.45;0.95;;;;;;;18.56;75.86;101942.66;4930959;29;20475;-93
2023/09/13 16:22:03;;;;;;;2.28;1.08;;;;;;;18.54;76.32;101947.13;4923000;29;20046;-90
2023/09/13 16:24:28;;;;;;;2.13;1.00;;;;;;;18.55;76.36;101948.84;4899151;29;20058;-90
2023/09/13 16:26:53;;;;;;;1.83;0.98;;;;;;;18.59;76.27;101947.78;4900527;29;21338;-91
2023/09/13 16:29:19;;;;;;;2.70;1.10;;;;;;;18.65;76.05;101943.13;4900422;29;20032;-89
2023/09/13 16:31:47;;;;;;;2.30;1.20;;;;;;;18.71;76.69;101946.44;4902293;29;20119;-93
2023/09/13 16:34:12;;;;;;;2.05;0.98;;;;;;;18.72;74.95;101958.69;4902726;29;20036;-95
2023/09/13 16:36:40;;;;;;;1.63;1.00;;;;;;;18.69;74.16;101956.19;4903838;29;20378;-93
2023/09/13 16:39:05;;;;;;;2.78;1.00;;;;;;;18.64;75.36;101954.59;4900424;29;20036;-96
2023/09/13 16:41:30;;;;;;;2.00;0.93;;;;;;;18.59;75.79;101959.22;4900047;29;20536;-91
2023/09/13 16:43:56;;;;;;;2.50;0.90;;;;;;;18.54;75.45;101953.28;4900392;29;20056;-96
2023/09/13 16:46:21;;;;;;;3.08;1.20;;;;;;;18.52;75.55;101957.75;4899552;29;20043;-91
2023/09/13 16:48:46;;;;;;;1.63;0.88;;;;;;;18.50;76.80;101960.44;4897609;29;20493;-91
2023/09/13 16:51:11;;;;;;;1.85;1.05;;;;;;;18.50;77.49;101959.56;4912378;29;20032;-90
2023/09/13 16:53:37;;;;;;;2.67;1.20;;;;;;;18.47;76.79;101960.56;4887072;29;20060;-92
2023/09/13 16:56:02;;;;;;;2.08;1.00;;;;;;;18.44;77.48;101967.75;4904667;29;20091;-94
2023/09/13 16:58:27;;;;;;;2.22;1.08;;;;;;;18.41;77.15;101957.34;4902128;29;20444;-91
2023/09/13 17:00:56;;;;;;;2.58;0.95;;;;;;;18.35;77.58;101964.56;4901094;29;20502;-91
2023/09/13 17:03:23;;;;;;;1.45;0.98;;;;;;;18.27;76.57;101966.66;4906965;29;20039;-92
2023/09/13 17:05:49;;;;;;;3.55;1.10;;;;;;;18.20;76.32;101968.66;4913280;29;20036;-92
2023/09/13 17:08:14;;;;;;;1.55;0.80;;;;;;;18.13;76.22;101964.56;4909628;29;20498;-92
2023/09/13 17:10:39;;;;;;;2.50;1.00;;;;;;;18.08;76.14;101963.03;4911605;29;20036;-92
2023/09/13 17:13:04;;;;;;;2.15;1.00;;;;;;;18.02;76.10;101972.03;4895983;29;20036;-90
2023/09/13 17:15:30;;;;;;;1.63;0.90;;;;;;;17.95;76.21;101966.09;4911011;29;20393;-90
2023/09/13 17:17:55;;;;;;;4.82;1.10;;;;;;;17.89;75.82;101975.09;4911733;29;20046;-91
2023/09/13 17:20:20;;;;;;;1.55;1.00;;;;;;;17.85;76.65;101975.28;4911137;29;20106;-92
2023/09/13 17:22:46;;;;;;;2.72;0.90;;;;;;;17.80;77.36;101972.84;4914033;29;20134;-90
2023/09/13 17:25:11;;;;;;;2.42;1.00;;;;;;;17.77;77.99;101978.22;4929549;29;20036;-91
2023/09/13 17:27:36;;;;;;;1.42;0.90;;;;;;;17.72;78.07;101975.75;4926004;29;20041;-93
2023/09/13 17:30:04;;;;;;;2.50;0.90;;;;;;;17.70;78.11;101977.59;4923570;29;20058;-93
2023/09/13 17:32:30;;;;;;;1.55;0.88;;;;;;;17.65;78.76;101979.53;4919971;29;20036;-93
2023/09/13 17:34:55;;;;;;;1.48;0.90;;;;;;;17.60;77.10;101992.00;4914358;29;20036;-92
2023/09/13 17:37:20;;;;;;;1.60;0.95;;;;;;;17.60;78.51;101981.47;4915229;29;20516;-93
2023/09/13 17:39:46;;;;;;;1.33;0.90;;;;;;;17.53;77.43;101987.88;4916967;29;20020;-95
2023/09/13 17:42:11;;;;;;;1.45;0.98;;;;;;;17.47;79.41;101990.72;4918119;29;20043;-92
2023/09/13 17:44:37;;;;;;;2.80;1.10;;;;;;;17.41;79.88;101987.44;4918700;29;20439;-91
2023/09/13 17:47:02;;;;;;;2.45;1.02;;;;;;;17.36;80.16;102002.50;4917185;29;20035;-92
2023/09/13 17:49:28;;;;;;;2.38;0.90;;;;;;;17.31;79.77;101998.34;4919682;29;20032;-93
2023/09/13 17:51:53;;;;;;;2.80;1.05;;;;;;;17.28;81.01;102007.16;4920158;29;20039;-94
2023/09/13 17:54:18;;;;;;;1.85;1.00;;;;;;;17.21;81.35;102005.69;4919555;29;20031;-93
2023/09/13 17:56:43;;;;;;;2.22;0.93;;;;;;;17.16;79.87;102004.97;4917653;29;20071;-90
2023/09/13 17:59:09;;;;;;;1.88;1.10;;;;;;;17.12;81.23;102014.75;4900947;29;20028;-94
2023/09/13 18:01:34;;;;;;;3.20;1.25;;;;;;;17.07;81.81;102009.66;4920728;29;20023;-94
2023/09/13 18:03:59;;;;;;;2.47;1.00;;;;;;;17.03;80.47;102023.81;4921069;29;20437;-94
2023/09/13 18:06:24;;;;;;;1.88;1.20;;;;;;;16.97;80.84;102030.16;4916516;29;20031;-92
2023/09/13 18:08:52;;;;;;;1.80;1.00;;;;;;;16.92;81.14;102020.63;4917619;29;20031;-94
2023/09/13 18:11:17;;;;;;;2.67;1.20;;;;;;;16.86;79.93;102026.13;4920872;29;20036;-95
2023/09/13 18:13:44;;;;;;;1.90;1.10;;;;;;;16.78;80.15;102029.84;4919071;29;20063;-93
2023/09/13 18:16:09;;;;;;;2.92;1.00;;;;;;;16.72;80.09;102043.22;4916908;29;20067;-94
2023/09/13 18:18:34;;;;;;;1.85;1.17;;;;;;;16.65;80.23;102036.41;4918775;29;20059;-94
2023/09/13 18:21:06;;;;;;;1.60;1.10;;;;;;;16.58;81.26;102043.66;4920164;29;20440;-92
2023/09/13 18:23:32;;;;;;;2.50;1.10;;;;;;;16.51;82.80;102044.72;4919307;29;20550;-95
2023/09/13 18:25:58;;;;;;;2.08;1.25;;;;;;;16.45;81.63;102043.16;4917415;29;20032;-93
2023/09/13 18:28:23;;;;;;;3.17;1.20;;;;;;;16.41;82.42;102043.31;4919385;29;20381;-92
2023/09/13 18:30:48;;;;;;;3.30;1.20;;;;;;;16.39;83.25;102046.00;4916445;29;20024;-94
2023/09/13 18:33:13;;;;;;;3.55;1.40;;;;;;;16.34;83.57;102047.91;4926590;29;20070;-95
2023/09/13 18:35:39;;;;;;;2.13;1.30;;;;;;;16.29;83.20;102048.03;4928344;29;20401;-94
2023/09/13 18:38:04;;;;;;;2.45;1.23;;;;;;;16.21;83.46;102050.91;4929640;29;20388;-95
2023/09/13 18:40:30;;;;;;;3.30;1.10;;;;;;;16.17;83.42;102051.91;4929443;29;20046;-93
2023/09/13 18:42:56;;;;;;;1.75;1.05;;;;;;;16.13;83.81;102042.38;4926922;29;20123;-93
2023/09/13 18:45:21;;;;;;;2.40;1.20;;;;;;;16.10;83.75;102052.97;4928306;29;20111;-94
2023/09/13 18:47:46;;;;;;;2.38;1.35;;;;;;;16.06;83.69;102053.97;4928295;29;20032;-93
2023/09/13 18:50:12;;;;;;;2.60;1.30;;;;;;;15.99;83.90;102060.31;4926964;29;20031;-94
2023/09/13 18:52:37;;;;;;;2.28;1.27;;;;;;;15.92;84.20;102060.47;4927723;29;20139;-95
2023/09/13 18:55:04;;;;;;;4.95;1.50;;;;;;;15.88;84.39;102063.25;4928743;29;20023;-94
2023/09/13 18:57:31;;;;;;;3.13;1.48;;;;;;;15.80;84.23;102068.69;4927352;29;20055;-96
2023/09/13 18:59:56;;;;;;;2.40;1.40;;;;;;;15.72;85.25;102062.75;4930856;29;20028;-94
2023/09/13 19:02:22;;;;;;;2.85;1.50;;;;;;;15.68;84.88;102067.25;4932012;29;20143;-93
2023/09/13 19:04:47;;;;;;;2.72;1.40;;;;;;;15.63;85.16;102074.38;4932927;29;20035;-94
2023/09/13 19:07:13;;;;;;;2.92;1.50;;;;;;;15.60;85.33;102080.56;4931485;29;20491;-92
2023/09/13 19:09:38;;;;;;;2.95;1.50;;;;;;;15.57;84.85;102079.81;4932022;29;20035;-92
2023/09/13 19:12:04;;;;;;;2.58;1.25;;;;;;;15.53;85.02;102081.66;4931635;29;20031;-93
2023/09/13 19:14:29;;;;;;;2.22;1.40;;;;;;;15.49;85.72;102087.88;4932290;29;20034;-92
2023/09/13 19:16:54;;;;;;;2.72;1.33;;;;;;;15.46;86.07;102082.72;4931083;29;20050;-92
2023/09/13 19:19:19;;;;;;;2.00;1.30;;;;;;;15.42;86.09;102089.81;4931012;29;20028;-95
2023/09/13 19:21:45;;;;;;;2.63;1.30;;;;;;;15.39;86.35;102104.72;4928529;29;20059;-94
2023/09/13 19:24:10;;;;;;;3.97;1.40;;;;;;;15.33;86.39;102096.16;4930163;29;20155;-91
2023/09/13 19:26:35;;;;;;;1.60;1.10;;;;;;;15.28;86.88;102095.41;4930036;29;20027;-93
2023/09/13 19:29:01;;;;;;;3.45;1.45;;;;;;;15.27;87.38;102101.53;4930363;29;20031;-94
2023/09/13 19:31:26;;;;;;;2.67;1.27;;;;;;;15.26;86.72;102102.44;4931462;29;20031;-93
2023/09/13 19:33:51;;;;;;;2.38;1.42;;;;;;;15.22;86.67;102098.16;4930480;29;20034;-94
2023/09/13 19:36:17;;;;;;;3.97;1.50;;;;;;;15.18;87.20;102100.00;4930631;29;20058;-94
2023/09/13 19:38:42;;;;;;;4.10;1.48;;;;;;;15.17;87.35;102113.16;4928632;29;20122;-94
2023/09/13 19:41:11;;;;;;;3.00;1.50;;;;;;;15.15;87.67;102115.81;4929763;29;20064;-93
2023/09/13 19:43:37;;;;;;;3.67;1.85;;;;;;;15.13;88.04;102111.50;4929607;29;21691;-93
2023/09/13 19:46:03;;;;;;;3.00;1.80;;;;;;;15.12;87.14;102115.88;4930043;29;20036;-92
2023/09/13 19:48:29;;;;;;;4.80;1.75;;;;;;;15.12;86.32;102117.66;4930973;29;20099;-94
2023/09/13 19:50:56;;;;;;;4.38;2.10;;;;;;;15.10;87.00;102114.19;4930570;29;20479;-94
2023/09/13 19:53:22;;;;;;;3.85;1.80;;;;;;;15.09;87.74;102117.72;4930269;29;20480;-94
2023/09/13 19:55:47;;;;;;;7.30;2.05;;;;;;;15.06;87.33;102116.03;4929377;29;20043;-92
2023/09/13 19:58:13;;;;;;;3.05;1.88;;;;;;;15.03;86.85;102126.59;4928981;29;21008;-96
2023/09/13 20:00:39;;;;;;;3.83;1.70;;;;;;;15.00;86.99;102118.81;4927136;29;20066;-95
2023/09/13 20:03:04;;;;;;;3.58;1.77;;;;;;;14.97;86.92;102127.59;4929971;29;20052;-93
2023/09/13 20:05:29;;;;;;;4.15;1.67;;;;;;;14.95;86.14;102128.53;4930594;29;20450;-94
2023/09/13 20:07:55;;;;;;;3.38;1.77;;;;;;;14.93;86.59;102128.56;4931997;29;20069;-94
2023/09/13 20:10:20;;;;;;;3.75;1.83;;;;;;;14.93;86.77;102130.34;4927485;29;20038;-93
2023/09/13 20:12:46;;;;;;;4.00;1.90;;;;;;;14.91;86.93;102138.22;4927839;29;20034;-94
2023/09/13 20:15:14;;;;;;;4.03;1.85;;;;;;;14.86;86.83;102135.72;4928750;29;20036;-92
2023/09/13 20:17:39;;;;;;;4.57;1.90;;;;;;;14.85;87.20;102133.16;4910955;29;20432;-92
2023/09/13 20:20:05;;;;;;;4.00;2.00;;;;;;;14.83;87.65;102129.69;4930539;29;20024;-92
2023/09/13 20:22:31;;;;;;;3.40;2.10;;;;;;;14.81;87.54;102131.47;4927003;29;20051;-92
2023/09/13 20:24:57;;;;;;;4.03;1.98;;;;;;;14.81;88.11;102134.94;4931679;29;20035;-93
2023/09/13 20:27:23;;;;;;;3.70;1.85;;;;;;;14.77;87.95;102130.69;4929054;29;20095;-93
2023/09/13 20:29:48;;;;;;;4.90;2.00;;;;;;;14.76;88.33;102143.81;4930633;29;20400;-94
2023/09/13 20:32:13;;;;;;;4.65;1.90;;;;;;;14.73;88.23;102139.53;4930082;29;20488;-93
2023/09/13 20:34:40;;;;;;;4.50;1.90;;;;;;;14.71;87.95;102138.69;4931595;29;20023;-94
2023/09/13 20:37:06;;;;;;;3.00;1.65;;;;;;;14.68;88.19;102137.00;4929214;29;20113;-92
2023/09/13 20:39:32;;;;;;;3.72;1.67;;;;;;;14.67;88.02;102140.50;4926776;29;20312;-92
2023/09/13 20:41:58;;;;;;;3.97;1.70;;;;;;;14.64;88.47;102135.31;4928441;29;20047;-94
2023/09/13 20:44:23;;;;;;;3.67;1.67;;;;;;;14.61;88.41;102135.38;4932612;29;20035;-92
2023/09/13 20:47:01;;;;;;;;;;;;;;;;;;;;;
2023/09/13 20:49:26;;;;;;;4.38;1.55;;;;;;;14.57;88.30;102139.81;4929316;29;20038;-92
2023/09/13 20:51:56;;;;;;;3.70;1.48;;;;;;;14.56;88.91;102137.22;4918724;29;20028;-92
2023/09/13 20:54:22;;;;;;;3.90;1.77;;;;;;;14.55;88.88;102135.50;4916488;29;20116;-94
2023/09/13 20:56:55;;;;;;;3.00;1.60;;;;;;;14.54;88.82;102136.38;4913185;29;20483;-94
2023/09/13 20:59:23;;;;;;;4.10;1.40;;;;;;;14.55;89.19;102145.97;4918548;29;20103;-92
2023/09/13 21:01:48;;;;;;;4.10;1.60;;;;;;;14.51;89.14;102146.97;4912389;29;20040;-93
2023/09/13 21:04:14;;;;;;;5.07;1.38;;;;;;;14.54;89.70;102144.25;4916416;29;20492;-93
2023/09/13 21:06:39;;;;;;;3.22;1.38;;;;;;;14.52;90.00;102143.41;4915613;29;20484;-93
2023/09/13 21:09:04;;;;;;;3.67;1.40;;;;;;;14.50;89.63;102153.94;4915562;29;20032;-94
2023/09/13 21:11:30;;;;;;;3.35;1.35;;;;;;;14.49;89.65;102156.59;4915671;29;20051;-91
2023/09/13 21:13:58;;;;;;;1.80;1.38;;;;;;;14.46;89.44;102154.88;4919254;29;20030;-88
2023/09/13 21:16:23;;;;;;;2.75;1.33;;;;;;;14.46;89.62;102156.66;4914142;29;20468;-92
2023/09/13 21:19:21;;;;;;;;;;;;;;;;;;;;;
2023/09/13 21:21:51;;;;;;;2.53;1.08;;;;;;;14.44;90.39;102154.03;4921342;29;20023;-92
2023/09/13 21:27:44;;;;;;;3.03;1.30;;;;;;;14.44;90.83;102158.44;4907310;29;20052;-93
2023/09/13 21:30:32;;;;;;;3.67;1.40;;;;;;;14.44;89.27;102158.44;4912675;29;20036;-96
2023/09/13 21:33:18;;;;;;;2.22;1.20;;;;;;;14.40;89.74;102157.66;4912095;29;20110;-96
2023/09/13 21:36:04;;;;;;;;;;;;;;;;;;;;;
2023/09/13 21:38:30;;;;;;;3.92;1.50;;;;;;;14.38;90.79;102155.03;4914434;29;20035;-94
2023/09/13 21:40:55;;;;;;;3.63;1.30;;;;;;;14.39;90.87;102162.00;4915912;29;20496;-90
2023/09/13 21:43:31;;;;;;;;;;;;;;;;;;;;;
2023/09/13 21:46:01;;;;;;;2.80;1.30;;;;;;;14.38;90.46;102162.91;4915220;29;20027;-94
2023/09/13 21:48:33;;;;;;;3.95;1.40;;;;;;;14.36;91.10;102159.44;4916939;29;20044;-96
2023/09/13 21:51:15;;;;;;;;;;;;;;;;;;;;;
2023/09/13 21:53:41;;;;;;;2.58;1.50;;;;;;;14.32;89.70;102149.06;4910850;29;20040;-94
2023/09/13 21:56:08;;;;;;;4.25;1.48;;;;;;;14.29;89.80;102155.25;4917549;29;20046;-91